createdAt,value
2018-06-12T00:01:43.910Z,99.90
2018-06-12T00:04:14.326Z,99.90
2018-06-12T00:06:44.427Z,99.90
2018-06-12T00:09:14.750Z,99.90
2018-06-12T00:11:44.326Z,99.90
2018-06-12T00:14:14.879Z,99.90
2018-06-12T00:16:45.188Z,99.90
2018-06-12T00:19:15.362Z,99.90
2018-06-12T00:21:45.066Z,99.90
2018-06-12T00:24:15.246Z,99.90
2018-06-12T00:26:45.790Z,99.90
2018-06-12T00:29:15.607Z,99.90
2018-06-12T00:31:45.305Z,99.90
2018-06-12T00:34:15.275Z,99.90
2018-06-12T00:36:44.899Z,99.90
2018-06-12T00:39:16.874Z,99.90
2018-06-12T00:41:47.486Z,99.90
2018-06-12T00:44:18.253Z,99.90
2018-06-12T00:49:18.755Z,99.90
2018-06-12T00:51:49.297Z,99.90
2018-06-12T00:54:19.983Z,99.90
2018-06-12T00:57:01.472Z,99.90
2018-06-12T00:59:31.751Z,99.90
2018-06-12T01:02:01.399Z,99.90
2018-06-12T01:04:30.814Z,99.90
2018-06-12T01:07:00.380Z,99.90
2018-06-12T01:09:34.127Z,99.90
2018-06-12T01:12:04.158Z,99.90
2018-06-12T01:14:34.494Z,99.90
2018-06-12T01:17:04.970Z,99.90
2018-06-12T01:19:34.602Z,99.90
2018-06-12T01:22:04.222Z,99.90
2018-06-12T01:24:34.011Z,99.90
2018-06-12T01:27:04.149Z,99.90
2018-06-12T01:29:34.650Z,99.90
2018-06-12T01:32:05.886Z,99.90
2018-06-12T01:34:36.366Z,99.90
2018-06-12T01:37:07.298Z,99.90
2018-06-12T01:39:38.186Z,99.90
2018-06-12T01:42:08.150Z,99.90
2018-06-12T01:44:37.649Z,99.90
2018-06-12T01:47:07.791Z,99.90
2018-06-12T01:49:39.263Z,99.90
2018-06-12T01:52:10.334Z,99.90
2018-06-12T01:54:39.902Z,99.90
2018-06-12T01:59:38.023Z,99.90
2018-06-12T02:02:08.019Z,99.90
2018-06-12T02:04:38.438Z,99.90
2018-06-12T02:07:09.899Z,99.90
2018-06-12T02:09:39.874Z,99.90
2018-06-12T02:12:10.278Z,99.90
2018-06-12T02:14:40.348Z,99.90
2018-06-12T02:17:11.131Z,99.90
2018-06-12T02:19:40.878Z,99.90
2018-06-12T02:22:10.430Z,99.90
2018-06-12T02:24:41.319Z,99.90
2018-06-12T02:27:11.491Z,99.90
2018-06-12T02:29:42.368Z,99.90
2018-06-12T02:34:42.017Z,99.90
2018-06-12T02:37:11.541Z,99.90
2018-06-12T02:39:41.702Z,99.90
2018-06-12T02:42:11.289Z,99.90
2018-06-12T02:44:41.046Z,99.90
2018-06-12T02:47:10.847Z,99.90
2018-06-12T02:49:41.051Z,99.90
2018-06-12T02:52:10.887Z,99.90
2018-06-12T02:54:41.030Z,99.90
2018-06-12T02:57:11.187Z,99.90
2018-06-12T02:59:41.474Z,99.90
2018-06-12T03:02:11.911Z,99.90
2018-06-12T03:04:41.484Z,99.90
2018-06-12T03:07:11.698Z,99.90
2018-06-12T03:12:11.538Z,99.90
2018-06-12T03:14:41.153Z,99.90
2018-06-12T03:17:10.762Z,99.90
2018-06-12T03:19:40.994Z,99.90
2018-06-12T03:22:10.418Z,99.90
2018-06-12T03:24:41.614Z,99.90
2018-06-12T03:27:12.659Z,99.90
2018-06-12T03:29:43.070Z,99.90
2018-06-12T03:32:13.706Z,99.90
2018-06-12T03:37:15.062Z,99.90
2018-06-12T03:39:45.250Z,99.90
2018-06-12T03:42:15.872Z,99.90
2018-06-12T03:44:46.253Z,99.90
2018-06-12T03:47:18.367Z,99.90
2018-06-12T03:49:49.610Z,99.90
2018-06-12T03:52:26.190Z,99.90
2018-06-12T03:54:56.118Z,99.90
2018-06-12T03:57:26.027Z,99.90
2018-06-12T03:59:55.977Z,99.90
2018-06-12T04:02:27.013Z,99.90
2018-06-12T04:04:56.861Z,99.90
2018-06-12T04:07:26.922Z,99.90
2018-06-12T04:09:56.733Z,99.90
2018-06-12T04:12:26.690Z,99.90
2018-06-12T04:14:58.156Z,99.90
2018-06-12T04:17:28.339Z,99.90
2018-06-12T04:19:58.218Z,99.90
2018-06-12T04:22:28.167Z,99.90
2018-06-12T04:24:57.991Z,99.90
2018-06-12T04:27:28.238Z,99.90
2018-06-12T04:29:58.222Z,99.90
2018-06-12T04:32:27.746Z,99.90
2018-06-12T04:34:58.630Z,99.90
2018-06-12T04:37:28.930Z,99.90
2018-06-12T04:39:58.918Z,99.90
2018-06-12T04:42:29.706Z,99.90
2018-06-12T04:44:59.946Z,99.90
2018-06-12T04:47:29.582Z,99.90
2018-06-12T04:50:00.292Z,99.90
2018-06-12T04:52:29.422Z,99.90
2018-06-12T04:54:59.943Z,99.90
2018-06-12T04:57:30.514Z,99.90
2018-06-12T05:00:01.528Z,99.90
2018-06-12T05:02:31.114Z,99.90
2018-06-12T05:05:01.207Z,99.90
2018-06-12T05:07:31.746Z,99.90
2018-06-12T05:10:02.646Z,99.90
2018-06-12T05:12:32.189Z,99.90
2018-06-12T05:15:01.883Z,99.90
2018-06-12T05:17:31.003Z,99.90
2018-06-12T05:20:01.175Z,99.90
2018-06-12T05:22:32.373Z,99.90
2018-06-12T05:25:02.199Z,99.90
2018-06-12T05:27:33.498Z,99.90
2018-06-12T05:32:34.228Z,99.90
2018-06-12T05:35:03.770Z,99.90
2018-06-12T05:37:33.507Z,99.90
2018-06-12T05:40:03.375Z,99.50
2018-06-12T05:42:33.858Z,98.80
2018-06-12T05:45:03.370Z,99.00
2018-06-12T05:47:33.294Z,98.80
2018-06-12T05:50:03.178Z,98.60
2018-06-12T05:52:33.219Z,97.90
2018-06-12T05:55:03.258Z,98.10
2018-06-12T05:57:33.141Z,97.20
2018-06-12T06:00:02.282Z,97.60
2018-06-12T06:02:32.548Z,96.70
2018-06-12T06:05:02.207Z,97.10
2018-06-12T06:07:32.154Z,96.90
2018-06-12T06:10:02.549Z,95.00
2018-06-12T06:12:31.934Z,95.50
2018-06-12T06:15:02.028Z,94.10
2018-06-12T06:17:32.446Z,94.30
2018-06-12T06:20:01.990Z,94.30
2018-06-12T06:22:31.996Z,93.80
2018-06-12T06:25:01.782Z,94.30
2018-06-12T06:27:32.162Z,93.40
2018-06-12T06:32:31.087Z,93.10
2018-06-12T06:35:01.062Z,93.50
2018-06-12T06:37:30.583Z,93.10
2018-06-12T06:40:00.017Z,93.00
2018-06-12T06:42:30.001Z,93.40
2018-06-12T06:45:00.162Z,93.70
2018-06-12T06:47:30.082Z,93.60
2018-06-12T06:50:00.474Z,92.60
2018-06-12T06:52:31.206Z,93.00
2018-06-12T06:55:02.751Z,92.90
2018-06-12T06:57:32.470Z,93.90
2018-06-12T07:00:02.947Z,94.00
2018-06-12T07:02:32.413Z,94.10
2018-06-12T07:05:02.190Z,92.50
2018-06-12T07:07:33.278Z,92.90
2018-06-12T07:10:03.211Z,92.60
2018-06-12T07:12:33.210Z,92.20
2018-06-12T07:15:02.841Z,92.60
2018-06-12T07:17:32.694Z,91.30
2018-06-12T07:20:02.503Z,92.10
2018-06-12T07:22:32.969Z,92.40
2018-06-12T07:25:02.893Z,91.80
2018-06-12T07:27:32.366Z,92.20
2018-06-12T07:30:01.985Z,90.10
2018-06-12T07:32:31.536Z,89.10
2018-06-12T07:35:01.458Z,89.10
2018-06-12T07:37:31.012Z,90.00
2018-06-12T07:40:02.074Z,88.90
2018-06-12T07:42:32.950Z,87.80
2018-06-12T07:45:02.878Z,88.40
2018-06-12T07:47:33.735Z,87.10
2018-06-12T07:50:03.207Z,87.50
2018-06-12T07:52:32.742Z,88.50
2018-06-12T07:55:02.106Z,89.30
2018-06-12T07:57:32.310Z,87.30
2018-06-12T08:00:02.603Z,90.00
2018-06-12T08:02:32.175Z,81.70
2018-06-12T08:05:02.008Z,82.30
2018-06-12T08:07:32.938Z,82.40
2018-06-12T08:10:02.306Z,81.90
2018-06-12T08:12:32.108Z,79.90
2018-06-12T08:15:03.327Z,81.30
2018-06-12T08:17:33.238Z,81.90
2018-06-12T08:20:03.765Z,80.90
2018-06-12T08:22:33.950Z,80.00
2018-06-12T08:25:04.483Z,81.60
2018-06-12T08:27:34.774Z,79.70
2018-06-12T08:30:04.230Z,79.90
2018-06-12T08:37:34.769Z,82.00
2018-06-12T08:40:05.682Z,76.70
2018-06-12T08:42:35.251Z,78.90
2018-06-12T08:45:05.057Z,76.80
2018-06-12T08:47:36.902Z,75.60
2018-06-12T08:50:07.210Z,73.20
2018-06-12T08:52:37.382Z,74.00
2018-06-12T08:55:07.183Z,74.20
2018-06-12T08:57:37.797Z,77.90
2018-06-12T09:00:07.266Z,76.40
2018-06-12T09:02:37.984Z,75.80
2018-06-12T09:05:09.010Z,73.20
2018-06-12T09:07:40.704Z,73.00
2018-06-12T09:12:40.662Z,73.10
2018-06-12T09:15:10.759Z,74.20
2018-06-12T09:17:41.046Z,75.50
2018-06-12T09:20:11.666Z,76.50
2018-06-12T09:22:43.546Z,75.20
2018-06-12T09:25:13.322Z,74.50
2018-06-12T09:27:49.054Z,73.80
2018-06-12T09:30:23.006Z,73.70
2018-06-12T09:32:54.983Z,72.00
2018-06-12T09:35:25.071Z,74.50
2018-06-12T09:37:54.313Z,72.10
2018-06-12T09:40:24.374Z,74.20
2018-06-12T09:42:55.427Z,69.40
2018-06-12T09:45:25.842Z,69.70
2018-06-12T09:47:56.130Z,70.80
2018-06-12T09:50:26.363Z,68.10
2018-06-12T09:52:57.017Z,66.30
2018-06-12T09:55:27.129Z,66.20
2018-06-12T09:57:57.634Z,65.70
2018-06-12T10:00:32.947Z,65.10
2018-06-12T10:03:02.945Z,64.20
2018-06-12T10:05:33.091Z,64.40
2018-06-12T10:08:03.003Z,66.60
2018-06-12T10:10:33.055Z,65.20
2018-06-12T10:13:03.006Z,65.20
2018-06-12T10:15:33.750Z,66.70
2018-06-12T10:18:04.120Z,67.90
2018-06-12T10:20:34.607Z,65.70
2018-06-12T10:23:04.759Z,66.40
2018-06-12T10:25:34.422Z,67.60
2018-06-12T10:28:04.529Z,70.70
2018-06-12T10:30:34.802Z,67.40
2018-06-12T10:33:10.135Z,67.00
2018-06-12T10:35:40.556Z,71.10
2018-06-12T10:38:11.294Z,68.70
2018-06-12T10:40:40.798Z,70.60
2018-06-12T10:43:11.190Z,67.70
2018-06-12T10:45:40.291Z,69.70
2018-06-12T10:48:09.866Z,70.40
2018-06-12T10:50:40.562Z,67.00
2018-06-12T10:53:10.175Z,70.80
2018-06-12T10:55:40.442Z,71.40
2018-06-12T10:58:10.298Z,63.10
2018-06-12T11:00:40.682Z,65.00
2018-06-12T11:03:10.578Z,64.50
2018-06-12T11:05:40.102Z,60.70
2018-06-12T11:08:09.930Z,61.30
2018-06-12T11:10:39.274Z,60.80
2018-06-12T11:13:10.026Z,60.70
2018-06-12T11:15:40.902Z,60.30
2018-06-12T11:18:10.812Z,60.70
2018-06-12T11:20:41.326Z,61.00
2018-06-12T11:23:11.039Z,61.70
2018-06-12T11:25:42.150Z,61.10
2018-06-12T11:28:12.629Z,62.30
2018-06-12T11:30:43.439Z,62.70
2018-06-12T11:33:12.851Z,62.20
2018-06-12T11:35:42.987Z,64.60
2018-06-12T11:38:12.530Z,64.10
2018-06-12T11:40:42.522Z,66.00
2018-06-12T11:43:12.078Z,67.00
2018-06-12T11:45:41.836Z,67.90
2018-06-12T11:48:13.382Z,68.80
2018-06-12T11:50:44.970Z,68.50
2018-06-12T11:53:14.568Z,68.80
2018-06-12T11:55:44.702Z,69.50
2018-06-12T11:58:13.958Z,69.80
2018-06-12T12:00:44.297Z,70.60
2018-06-12T12:03:16.163Z,70.50
2018-06-12T12:05:46.911Z,70.10
2018-06-12T12:08:16.799Z,71.20
2018-06-12T12:10:47.063Z,71.80
2018-06-12T12:13:17.327Z,73.50
2018-06-12T12:15:47.166Z,74.10
2018-06-12T12:18:16.960Z,73.40
2018-06-12T12:20:47.527Z,75.00
2018-06-12T12:23:17.205Z,79.00
2018-06-12T12:25:47.151Z,78.50
2018-06-12T12:28:18.003Z,78.20
2018-06-12T12:30:48.553Z,82.50
2018-06-12T12:33:17.969Z,86.30
2018-06-12T12:35:47.926Z,89.10
2018-06-12T12:38:18.626Z,83.50
2018-06-12T12:40:48.998Z,84.50
2018-06-12T12:43:19.974Z,88.70
2018-06-12T12:45:50.258Z,87.50
2018-06-12T12:48:20.099Z,90.00
2018-06-12T12:50:51.250Z,85.90
2018-06-12T12:53:20.981Z,86.60
2018-06-12T12:55:50.161Z,89.30
2018-06-12T12:58:19.350Z,88.00
2018-06-12T13:00:50.137Z,90.90
2018-06-12T13:03:19.986Z,91.50
2018-06-12T13:05:51.194Z,87.40
2018-06-12T13:08:21.070Z,90.40
2018-06-12T13:10:51.886Z,91.90
2018-06-12T13:13:22.331Z,93.00
2018-06-12T13:18:21.310Z,91.90
2018-06-12T13:20:50.504Z,90.70
2018-06-12T13:23:20.409Z,91.30
2018-06-12T13:25:50.818Z,90.90
2018-06-12T13:28:21.315Z,92.80
2018-06-12T13:30:51.931Z,92.60
2018-06-12T13:33:22.421Z,91.20
2018-06-12T13:35:52.875Z,91.40
2018-06-12T13:38:22.478Z,93.80
2018-06-12T13:40:53.178Z,91.80
2018-06-12T13:43:23.071Z,89.70
2018-06-12T13:45:53.843Z,92.60
2018-06-12T13:48:23.934Z,92.10
2018-06-12T13:50:54.603Z,92.40
2018-06-12T13:53:24.830Z,92.20
2018-06-12T13:55:55.127Z,90.30
2018-06-12T13:58:25.642Z,90.30
2018-06-12T14:00:55.404Z,90.20
2018-06-12T14:03:24.826Z,88.00
2018-06-12T14:05:54.909Z,89.20
2018-06-12T14:08:25.086Z,90.10
2018-06-12T14:10:56.302Z,90.00
2018-06-12T14:13:27.037Z,91.10
2018-06-12T14:15:57.179Z,90.40
2018-06-12T14:18:27.146Z,93.40
2018-06-12T14:20:57.131Z,93.20
2018-06-12T14:23:26.978Z,93.70
2018-06-12T14:25:58.654Z,92.70
2018-06-12T14:28:29.343Z,93.40
2018-06-12T14:30:59.782Z,91.70
2018-06-12T14:33:30.850Z,91.90
2018-06-12T14:36:02.339Z,92.30
2018-06-12T14:38:32.922Z,91.40
2018-06-12T14:41:02.058Z,91.60
2018-06-12T14:43:32.036Z,89.10
2018-06-12T14:46:02.158Z,90.00
2018-06-12T14:48:32.778Z,87.10
2018-06-12T14:51:02.316Z,83.80
2018-06-12T14:53:32.093Z,77.70
2018-06-12T14:56:02.114Z,78.80
2018-06-12T14:58:31.650Z,74.70
2018-06-12T15:01:01.539Z,77.50
2018-06-12T15:03:32.390Z,78.50
2018-06-12T15:08:33.366Z,72.70
2018-06-12T15:11:02.911Z,70.50
2018-06-12T15:13:33.550Z,71.20
2018-06-12T15:18:33.359Z,69.40
2018-06-12T15:21:02.731Z,67.20
2018-06-12T15:23:33.799Z,69.10
2018-06-12T15:26:03.190Z,64.70
2018-06-12T15:28:32.666Z,65.70
2018-06-12T15:31:02.927Z,67.90
2018-06-12T15:33:34.923Z,68.90
2018-06-12T15:36:05.403Z,69.20
2018-06-12T15:38:35.702Z,68.10
2018-06-12T15:41:05.930Z,67.40
2018-06-12T15:43:35.551Z,68.00
2018-06-12T15:46:05.287Z,68.80
2018-06-12T15:48:35.530Z,72.00
2018-06-12T15:51:05.263Z,68.90
2018-06-12T15:53:35.765Z,68.00
2018-06-12T15:56:05.999Z,68.70
2018-06-12T15:58:35.917Z,71.50
2018-06-12T16:01:06.194Z,71.60
2018-06-12T16:03:36.206Z,72.50
2018-06-12T16:06:06.415Z,72.10
2018-06-12T16:08:36.759Z,74.00
2018-06-12T16:13:36.497Z,74.60
2018-06-12T16:16:07.190Z,76.40
2018-06-12T16:18:37.591Z,77.90
2018-06-12T16:21:07.178Z,79.50
2018-06-12T16:23:37.674Z,79.10
2018-06-12T16:26:08.474Z,80.00
2018-06-12T16:28:39.671Z,79.10
2018-06-12T16:31:10.926Z,79.60
2018-06-12T16:33:40.634Z,79.40
2018-06-12T16:36:10.995Z,79.40
2018-06-12T16:38:40.818Z,80.20
2018-06-12T16:41:11.138Z,80.90
2018-06-12T16:43:40.867Z,81.40
2018-06-12T16:46:11.672Z,83.30
2018-06-12T16:48:42.906Z,82.10
2018-06-12T16:51:13.102Z,83.10
2018-06-12T16:53:43.005Z,83.80
2018-06-12T16:56:13.438Z,84.60
2018-06-12T16:58:42.270Z,84.00
2018-06-12T17:01:12.097Z,84.70
2018-06-12T17:03:42.129Z,85.10
2018-06-12T17:06:11.626Z,83.90
2018-06-12T17:08:40.921Z,83.80
2018-06-12T17:11:10.193Z,84.70
2018-06-12T17:13:40.606Z,85.20
2018-06-12T17:16:09.774Z,85.20
2018-06-12T17:18:39.268Z,85.40
2018-06-12T17:21:08.695Z,86.20
2018-06-12T17:23:39.003Z,84.60
2018-06-12T17:26:09.505Z,85.30
2018-06-12T17:28:39.330Z,85.00
2018-06-12T17:31:09.351Z,85.70
2018-06-12T17:33:38.466Z,86.30
2018-06-12T17:36:08.883Z,86.30
2018-06-12T17:38:39.117Z,86.60
2018-06-12T17:41:09.084Z,86.60
2018-06-12T17:43:39.609Z,87.60
2018-06-12T17:46:08.737Z,88.00
2018-06-12T17:48:38.635Z,88.50
2018-06-12T17:51:09.026Z,86.80
2018-06-12T17:53:38.938Z,87.50
2018-06-12T17:56:08.154Z,86.40
2018-06-12T17:58:38.455Z,87.20
2018-06-12T18:01:08.018Z,85.40
2018-06-12T18:03:37.689Z,85.90
2018-06-12T18:06:07.458Z,87.20
2018-06-12T18:08:37.037Z,85.70
2018-06-12T18:11:07.690Z,86.00
2018-06-12T18:13:43.810Z,88.10
2018-06-12T18:16:14.866Z,84.80
2018-06-12T18:18:44.983Z,85.40
2018-06-12T18:21:15.076Z,85.90
2018-06-12T18:23:44.637Z,86.10
2018-06-12T18:26:15.177Z,85.60
2018-06-12T18:28:46.410Z,86.20
2018-06-12T18:31:16.088Z,85.90
2018-06-12T18:33:45.971Z,85.70
2018-06-12T18:36:16.029Z,86.40
2018-06-12T18:38:45.809Z,86.20
2018-06-12T18:41:16.801Z,88.40
2018-06-12T18:43:46.287Z,89.00
2018-06-12T18:46:17.382Z,89.50
2018-06-12T18:48:47.122Z,87.60
2018-06-12T18:51:17.113Z,89.00
2018-06-12T18:53:48.138Z,89.60
2018-06-12T18:56:17.819Z,90.30
2018-06-12T18:58:48.206Z,90.10
2018-06-12T19:01:18.762Z,90.60
2018-06-12T19:03:49.590Z,90.70
2018-06-12T19:06:19.179Z,90.70
2018-06-12T19:08:50.178Z,90.80
2018-06-12T19:11:20.978Z,91.30
2018-06-12T19:13:52.082Z,91.30
2018-06-12T19:16:22.587Z,91.60
2018-06-12T19:18:52.966Z,91.40
2018-06-12T19:23:52.872Z,91.60
2018-06-12T19:26:22.822Z,92.10
2018-06-12T19:28:52.531Z,92.40
2018-06-12T19:31:22.578Z,92.80
2018-06-12T19:33:52.637Z,93.10
2018-06-12T19:36:22.571Z,92.70
2018-06-12T19:38:53.410Z,93.00
2018-06-12T19:43:54.030Z,93.40
2018-06-12T19:46:23.493Z,93.20
2018-06-12T19:48:53.661Z,93.60
2018-06-12T19:51:23.994Z,93.70
2018-06-12T19:53:53.219Z,93.70
2018-06-12T19:56:24.535Z,93.90
2018-06-12T19:58:55.342Z,94.10
2018-06-12T20:01:25.566Z,94.20
2018-06-12T20:03:55.913Z,94.50
2018-06-12T20:06:26.167Z,94.50
2018-06-12T20:08:56.626Z,94.50
2018-06-12T20:11:27.875Z,94.10
2018-06-12T20:13:58.190Z,94.50
2018-06-12T20:16:27.409Z,94.30
2018-06-12T20:18:57.347Z,94.60
2018-06-12T20:21:26.835Z,94.50
2018-06-12T20:23:57.466Z,94.90
2018-06-12T20:26:28.251Z,94.80
2018-06-12T20:28:58.566Z,95.00
2018-06-12T20:31:27.922Z,94.50
2018-06-12T20:33:58.130Z,93.70
2018-06-12T20:36:27.786Z,93.80
2018-06-12T20:38:56.934Z,94.10
2018-06-12T20:41:27.081Z,94.00
2018-06-12T20:43:57.810Z,94.00
2018-06-12T20:48:58.494Z,93.90
2018-06-12T20:51:27.985Z,93.70
2018-06-12T20:53:58.509Z,93.90
2018-06-12T20:56:28.746Z,94.30
2018-06-12T20:58:58.645Z,94.40
2018-06-12T21:01:28.574Z,93.90
2018-06-12T21:03:58.296Z,94.20
2018-06-12T21:06:28.694Z,94.40
2018-06-12T21:08:59.318Z,94.60
2018-06-12T21:11:29.607Z,94.40
2018-06-12T21:13:58.754Z,94.40
2018-06-12T21:16:29.051Z,95.00
2018-06-12T21:18:59.938Z,94.40
2018-06-12T21:21:30.511Z,94.90
2018-06-12T21:24:01.618Z,95.00
2018-06-12T21:26:31.474Z,95.30
2018-06-12T21:29:01.529Z,95.30
2018-06-12T21:31:32.683Z,95.60
2018-06-12T21:34:02.982Z,95.80
2018-06-12T21:36:32.642Z,95.80
2018-06-12T21:39:03.222Z,95.90
2018-06-12T21:41:33.261Z,95.70
2018-06-12T21:44:02.772Z,95.90
2018-06-12T21:46:32.603Z,96.50
2018-06-12T21:49:02.102Z,95.70
2018-06-12T21:51:32.256Z,95.30
2018-06-12T21:54:02.458Z,96.00
2018-06-12T21:56:32.025Z,95.20
2018-06-12T21:59:02.116Z,95.50
2018-06-12T22:01:32.939Z,95.50
2018-06-12T22:04:03.678Z,95.30
2018-06-12T22:06:34.370Z,95.00
2018-06-12T22:09:05.339Z,95.60
2018-06-12T22:11:35.426Z,95.50
2018-06-12T22:14:06.098Z,95.60
2018-06-12T22:16:35.690Z,96.20
2018-06-12T22:19:06.173Z,95.50
2018-06-12T22:21:36.429Z,95.80
2018-06-12T22:24:05.861Z,96.00
2018-06-12T22:26:36.023Z,96.90
2018-06-12T22:29:06.607Z,96.90
2018-06-12T22:31:38.322Z,97.10
2018-06-12T22:34:09.342Z,96.80
2018-06-12T22:36:41.195Z,97.00
2018-06-12T22:39:11.709Z,96.90
2018-06-12T22:41:40.834Z,96.10
2018-06-12T22:44:10.255Z,96.50
2018-06-12T22:46:40.390Z,96.00
2018-06-12T22:51:38.279Z,94.90
2018-06-12T22:54:08.745Z,94.40
2018-06-12T22:56:39.254Z,94.70
2018-06-12T22:59:08.756Z,95.20
2018-06-12T23:01:38.230Z,94.80
2018-06-12T23:04:08.446Z,95.00
2018-06-12T23:06:37.570Z,95.20
2018-06-12T23:09:08.497Z,95.20
2018-06-12T23:11:37.694Z,95.00
2018-06-12T23:14:07.590Z,95.10
2018-06-12T23:16:38.130Z,95.50
2018-06-12T23:19:07.702Z,95.90
2018-06-12T23:21:49.267Z,96.10
2018-06-12T23:24:20.282Z,96.70
2018-06-12T23:26:50.911Z,96.40
2018-06-12T23:29:20.798Z,96.70
2018-06-12T23:31:51.566Z,96.90
2018-06-12T23:34:23.698Z,96.90
2018-06-12T23:36:53.913Z,96.90
2018-06-12T23:39:24.361Z,97.40
2018-06-12T23:41:55.397Z,97.80
2018-06-12T23:44:25.849Z,97.30
2018-06-12T23:46:56.566Z,98.00
2018-06-12T23:49:26.481Z,98.10
2018-06-12T23:51:56.334Z,97.40
2018-06-12T23:54:26.003Z,97.70
2018-06-12T23:56:56.754Z,97.70
2018-06-12T23:59:26.683Z,98.30
